Time;durP1;ratioP1;P1;durP2;ratioP2;P2;SDS_P1;SDS_P2;PMS_P1;PMS_P2;Temp;Humidity;BMP_temperature;BMP_pressure;BME280_temperature;BME280_humidity;BME280_pressure;Samples;Min_cycle;Max_cycle;Signal;HPM_P1;HPM_P2
2023/04/12 00:00:18;;;;;;;;;;;;;;;8.12;72.10;96278.02;110359;1238;68459;-80
2023/04/12 00:03:09;;;;;;;;;;;;;;;8.10;72.47;96275.25;110451;1241;69044;-80
2023/04/12 00:05:38;;;;;;;;;;;;;;;8.10;69.67;96270.21;110630;1241;59737;-80
2023/04/12 00:08:09;;;;;;;;;;;;;;;8.12;68.95;96268.48;110476;1240;59704;-80
2023/04/12 00:10:39;;;;;;;;;;;;;;;8.14;68.86;96265.20;110541;1238;71330;-80
2023/04/12 00:13:08;;;;;;;;;;;;;;;8.16;68.52;96260.65;110470;1241;68653;-80
2023/04/12 00:15:38;;;;;;;;;;;;;;;8.19;68.91;96260.30;110465;1238;68520;-80
2023/04/12 00:18:07;;;;;;;;;;;;;;;8.21;68.39;96259.25;110593;1239;59692;-80
2023/04/12 00:20:37;;;;;;;;;;;;;;;8.23;68.62;96257.02;110589;1241;59705;-80
2023/04/12 00:23:08;;;;;;;;;;;;;;;8.24;69.75;96257.14;110521;1241;71396;-80
2023/04/12 00:25:38;;;;;;;;;;;;;;;8.26;69.11;96259.03;110594;1241;69826;-80
2023/04/12 00:28:07;;;;;;;;;;;;;;;8.28;69.14;96256.30;110654;1238;69372;-81
2023/04/12 00:30:36;;;;;;;;;;;;;;;8.29;68.83;96253.13;110628;1238;59673;-81
2023/04/12 00:33:07;;;;;;;;;;;;;;;8.29;70.46;96248.46;110707;1240;59682;-81
2023/04/12 00:35:38;;;;;;;;;;;;;;;8.28;69.38;96242.23;110679;1238;70989;-81
2023/04/12 00:38:09;;;;;;;;;;;;;;;8.28;70.26;96237.24;110693;1241;69396;-81
2023/04/12 00:40:40;;;;;;;;;;;;;;;8.26;69.06;96232.83;111467;1238;69525;-79
2023/04/12 00:43:14;;;;;;;;;;;;;;;8.25;69.14;96232.07;111711;1238;58988;-80
2023/04/12 00:45:47;;;;;;;;;;;;;;;8.24;69.96;96233.20;111329;1238;59735;-80
2023/04/12 00:48:18;;;;;;;;;;;;;;;8.23;69.32;96235.16;110597;1238;71215;-80
2023/04/12 00:50:48;;;;;;;;;;;;;;;8.23;69.63;96231.90;110581;1242;68333;-80
2023/04/12 00:53:21;;;;;;;;;;;;;;;8.21;71.63;96233.92;110492;1241;68311;-80
2023/04/12 00:55:54;;;;;;;;;;;;;;;8.19;73.13;96230.09;110467;1242;59670;-81
2023/04/12 00:58:24;;;;;;;;;;;;;;;8.15;75.24;96225.24;110638;1238;59792;-82
2023/04/12 01:00:53;;;;;;;;;;;;;;;8.11;75.48;96223.16;110622;1238;71457;-81
2023/04/12 01:03:23;;;;;;;;;;;;;;;8.06;76.27;96222.69;110659;1240;68757;-81
2023/04/12 01:05:53;;;;;;;;;;;;;;;8.02;77.61;96221.95;110564;1240;68389;-80
2023/04/12 01:08:22;;;;;;;;;;;;;;;7.99;77.38;96219.23;110646;1238;59643;-80
2023/04/12 01:11:08;;;;;;;;;;;;;;;7.97;77.45;96219.92;110746;1238;59636;-80
2023/04/12 01:14:00;;;;;;;;;;;;;;;7.96;76.86;96219.33;110452;1238;71547;-80
2023/04/12 01:16:39;;;;;;;;;;;;;;;7.94;76.86;96217.05;110492;1238;68755;-80
2023/04/12 01:19:18;;;;;;;;;;;;;;;7.90;77.23;96210.06;110704;1238;67554;-80
2023/04/12 01:22:05;;;;;;;;;;;;;;;7.88;77.52;96204.37;110691;1241;59743;-80
2023/04/12 01:25:02;;;;;;;;;;;;;;;7.86;77.72;96202.95;110570;1238;59690;-80
2023/04/12 01:27:42;;;;;;;;;;;;;;;7.81;79.34;96192.43;110517;1241;71417;-80
2023/04/12 01:30:16;;;;;;;;;;;;;;;7.75;80.25;96190.66;110718;1238;68406;-80
2023/04/12 01:32:50;;;;;;;;;;;;;;;7.71;80.45;96188.77;110684;1240;69071;-80
2023/04/12 01:35:29;;;;;;;;;;;;;;;7.67;80.85;96187.70;110552;1241;59738;-80
2023/04/12 01:37:59;;;;;;;;;;;;;;;7.62;81.23;96187.88;110641;1238;59730;-80
2023/04/12 01:40:32;;;;;;;;;;;;;;;7.59;81.65;96182.56;110698;1242;71870;-80
2023/04/12 01:43:12;;;;;;;;;;;;;;;7.55;82.17;96179.60;110622;1238;68646;-80
2023/04/12 01:45:41;;;;;;;;;;;;;;;7.51;81.75;96175.76;110650;1240;68550;-80
2023/04/12 01:48:11;;;;;;;;;;;;;;;7.47;81.56;96175.23;110567;1242;59752;-81
2023/04/12 01:51:03;;;;;;;;;;;;;;;7.42;81.26;96171.46;111591;1238;59598;-81
2023/04/12 01:54:12;;;;;;;;;;;;;;;7.37;82.41;96170.15;111593;1238;71361;-81
2023/04/12 01:56:44;;;;;;;;;;;;;;;7.31;83.07;96165.79;109836;1248;69235;-81
2023/04/12 01:59:16;;;;;;;;;;;;;;;7.27;83.76;96169.59;110514;1241;68563;-81
2023/04/12 02:01:46;;;;;;;;;;;;;;;7.23;84.42;96171.98;110509;1238;59699;-81
2023/04/12 02:04:16;;;;;;;;;;;;;;;7.21;84.08;96172.64;110515;1241;59701;-81
2023/04/12 02:06:47;;;;;;;;;;;;;;;7.19;83.18;96170.38;110573;1240;71303;-81
2023/04/12 02:09:18;;;;;;;;;;;;;;;7.18;80.37;96172.51;110595;1238;67604;-81
2023/04/12 02:11:48;;;;;;;;;;;;;;;7.17;78.76;96167.05;110407;1242;69293;-81
2023/04/12 02:14:20;;;;;;;;;;;;;;;7.17;78.85;96171.73;110486;1238;59750;-81
2023/04/12 02:16:53;;;;;;;;;;;;;;;7.16;80.39;96170.26;110679;1238;59730;-80
2023/04/12 02:19:23;;;;;;;;;;;;;;;7.14;82.25;96169.56;110653;1241;70683;-82
2023/04/12 02:21:54;;;;;;;;;;;;;;;7.12;83.25;96167.63;110390;1238;68790;-78
2023/04/12 02:24:24;;;;;;;;;;;;;;;7.08;83.79;96169.11;110589;1240;68804;-80
2023/04/12 02:26:53;;;;;;;;;;;;;;;7.05;84.21;96168.98;110503;1238;59725;-81
2023/04/12 02:29:22;;;;;;;;;;;;;;;7.03;84.71;96170.59;110473;1241;59690;-81
2023/04/12 02:31:52;;;;;;;;;;;;;;;7.02;83.89;96167.67;110409;1238;70469;-79
2023/04/12 02:34:22;;;;;;;;;;;;;;;7.03;84.29;96167.64;110566;1238;68670;-81
2023/04/12 02:36:59;;;;;;;;;;;;;;;7.02;84.43;96168.72;110676;1238;68706;-81
2023/04/12 02:39:30;;;;;;;;;;;;;;;7.02;84.41;96173.08;110639;1240;59696;-81
2023/04/12 02:42:00;;;;;;;;;;;;;;;7.01;84.94;96168.50;110480;1242;59676;-79
2023/04/12 02:44:31;;;;;;;;;;;;;;;6.99;85.35;96168.83;110415;1238;70626;-80
2023/04/12 02:47:28;;;;;;;;;;;;;;;6.98;82.23;96170.27;110528;1238;69167;-79
2023/04/12 02:49:59;;;;;;;;;;;;;;;6.99;80.08;96169.54;110604;1241;68532;-81
2023/04/12 02:52:32;;;;;;;;;;;;;;;7.00;79.53;96171.98;110569;1238;59794;-81
2023/04/12 02:55:07;;;;;;;;;;;;;;;7.03;79.59;96166.97;110441;1242;59741;-81
2023/04/12 02:57:36;;;;;;;;;;;;;;;7.05;79.65;96165.36;110517;1238;71990;-81
2023/04/12 03:00:14;;;;;;;;;;;;;;;7.09;79.19;96162.67;111869;1238;68310;-80
2023/04/12 03:02:52;;;;;;;;;;;;;;;7.12;78.67;96160.86;111476;1238;68482;-81
2023/04/12 03:05:26;;;;;;;;;;;;;;;7.14;78.40;96161.16;110991;1238;59688;-80
2023/04/12 03:07:56;;;;;;;;;;;;;;;7.17;77.89;96159.80;110587;1238;59667;-80
2023/04/12 03:10:33;;;;;;;;;;;;;;;7.19;78.94;96160.34;110736;1238;71353;-80
2023/04/12 03:13:05;;;;;;;;;;;;;;;7.21;80.20;96161.91;110598;1241;68529;-80
2023/04/12 03:15:42;;;;;;;;;;;;;;;7.21;83.39;96160.71;110549;1240;69102;-80
2023/04/12 03:18:11;;;;;;;;;;;;;;;7.21;84.18;96166.77;110489;1238;59657;-80
2023/04/12 03:20:46;;;;;;;;;;;;;;;7.18;81.69;96165.06;110576;1238;59724;-80
2023/04/12 03:23:15;;;;;;;;;;;;;;;7.16;83.56;96162.77;110650;1238;71249;-79
2023/04/12 03:25:47;;;;;;;;;;;;;;;7.13;85.18;96160.75;110620;1238;68422;-80
2023/04/12 03:28:33;;;;;;;;;;;;;;;7.11;86.44;96158.66;110675;1238;69346;-80
2023/04/12 03:31:04;;;;;;;;;;;;;;;7.10;86.86;96157.39;110745;1238;59755;-80
2023/04/12 03:33:52;;;;;;;;;;;;;;;7.06;87.70;96157.65;110578;1238;59759;-81
2023/04/12 03:36:26;;;;;;;;;;;;;;;7.03;90.14;96160.50;110622;1241;71382;-81
2023/04/12 03:38:59;;;;;;;;;;;;;;;7.02;87.43;96159.24;110596;1238;68500;-81
2023/04/12 03:41:30;;;;;;;;;;;;;;;6.99;90.74;96161.22;110438;1238;69146;-81
2023/04/12 03:43:59;;;;;;;;;;;;;;;6.98;91.44;96160.94;110691;1238;59673;-80
2023/04/12 03:46:29;;;;;;;;;;;;;;;6.98;88.63;96160.73;110554;1238;59698;-80
2023/04/12 03:49:01;;;;;;;;;;;;;;;6.98;86.54;96157.44;110587;1242;71605;-79
2023/04/12 03:51:31;;;;;;;;;;;;;;;6.98;89.66;96165.23;110677;1238;69121;-80
2023/04/12 03:54:04;;;;;;;;;;;;;;;6.96;91.97;96161.73;110745;1241;69133;-79
2023/04/12 03:56:43;;;;;;;;;;;;;;;6.93;92.39;96161.80;110673;1240;59735;-79
2023/04/12 03:59:20;;;;;;;;;;;;;;;6.90;93.81;96159.98;110537;1241;60105;-79
2023/04/12 04:01:50;;;;;;;;;;;;;;;6.84;95.86;96158.86;110592;1238;71368;-80
2023/04/12 04:04:20;;;;;;;;;;;;;;;6.78;96.18;96158.46;110403;1238;69301;-80
2023/04/12 04:06:50;;;;;;;;;;;;;;;6.72;97.58;96163.61;110559;1238;69090;-80
2023/04/12 04:09:19;;;;;;;;;;;;;;;6.71;97.74;96159.28;110955;1238;59773;-78
2023/04/12 04:11:50;;;;;;;;;;;;;;;6.66;98.23;96162.38;111459;1238;59722;-79
2023/04/12 04:14:20;;;;;;;;;;;;;;;6.63;98.01;96161.73;110660;1238;71985;-78
2023/04/12 04:16:49;;;;;;;;;;;;;;;6.63;99.13;96165.99;110453;1242;69259;-79
2023/04/12 04:19:18;;;;;;;;;;;;;;;6.67;97.62;96167.98;110405;1238;69218;-79
2023/04/12 04:21:48;;;;;;;;;;;;;;;6.69;98.35;96166.63;110743;1238;59971;-79
2023/04/12 04:24:18;;;;;;;;;;;;;;;6.71;97.08;96169.07;110397;1238;59696;-79
2023/04/12 04:26:49;;;;;;;;;;;;;;;6.74;97.57;96171.98;110679;1239;72040;-80
2023/04/12 04:29:24;;;;;;;;;;;;;;;6.74;99.90;96169.23;110425;1238;69819;-79
2023/04/12 04:31:53;;;;;;;;;;;;;;;6.76;99.22;96170.08;110664;1238;69340;-79
2023/04/12 04:34:24;;;;;;;;;;;;;;;6.77;99.71;96171.35;110715;1241;59675;-79
2023/04/12 04:36:57;;;;;;;;;;;;;;;6.80;98.66;96166.79;110406;1242;59685;-79
2023/04/12 04:39:27;;;;;;;;;;;;;;;6.86;98.05;96166.88;110723;1240;71818;-80
2023/04/12 04:41:58;;;;;;;;;;;;;;;6.88;99.29;96166.05;110720;1238;69664;-80
2023/04/12 04:44:34;;;;;;;;;;;;;;;6.89;99.02;96168.34;110393;1242;69155;-81
2023/04/12 04:47:07;;;;;;;;;;;;;;;6.89;99.08;96169.80;110616;1240;59753;-80
2023/04/12 04:49:36;;;;;;;;;;;;;;;6.90;99.02;96173.70;110641;1238;59755;-80
2023/04/12 04:52:22;;;;;;;;;;;;;;;6.91;98.30;96173.08;110574;1241;71320;-80
2023/04/12 04:54:56;;;;;;;;;;;;;;;6.95;97.33;96176.73;110640;1238;69185;-81
2023/04/12 04:57:27;;;;;;;;;;;;;;;6.99;97.45;96177.67;110570;1238;69845;-80
2023/04/12 04:59:56;;;;;;;;;;;;;;;7.03;97.15;96178.35;110587;1240;59695;-81
2023/04/12 05:02:25;;;;;;;;;;;;;;;7.08;95.05;96182.09;110522;1240;59691;-81
2023/04/12 05:04:55;;;;;;;;;;;;;;;7.14;93.07;96183.87;110665;1238;70629;-80
2023/04/12 05:07:25;;;;;;;;;;;;;;;7.20;92.36;96185.33;110597;1240;69241;-81
2023/04/12 05:09:53;;;;;;;;;;;;;;;7.26;91.77;96182.65;110422;1242;69937;-81
2023/04/12 05:12:22;;;;;;;;;;;;;;;7.31;91.13;96181.34;110737;1238;59672;-81
2023/04/12 05:14:53;;;;;;;;;;;;;;;7.36;93.77;96178.36;110601;1240;59672;-80
2023/04/12 05:17:39;;;;;;;;;;;;;;;7.37;96.09;96181.56;110785;1238;71292;-81
2023/04/12 05:20:09;;;;;;;;;;;;;;;7.36;96.67;96179.90;110722;1239;69683;-81
2023/04/12 05:22:39;;;;;;;;;;;;;;;7.40;96.39;96179.47;110628;1238;69284;-80
2023/04/12 05:25:08;;;;;;;;;;;;;;;7.44;95.50;96179.13;110558;1241;59737;-81
2023/04/12 05:27:43;;;;;;;;;;;;;;;7.51;92.54;96184.23;110602;1241;59737;-80
2023/04/12 05:30:14;;;;;;;;;;;;;;;7.57;94.39;96185.02;110469;1238;71391;-80
2023/04/12 05:32:44;;;;;;;;;;;;;;;7.62;93.36;96188.27;110529;1240;69048;-79
2023/04/12 05:35:12;;;;;;;;;;;;;;;7.68;92.87;96190.41;110431;1242;68566;-79
2023/04/12 05:37:42;;;;;;;;;;;;;;;7.70;94.77;96186.90;110699;1240;59689;-78
2023/04/12 05:40:11;;;;;;;;;;;;;;;7.78;91.64;96181.26;110412;1242;59673;-78
2023/04/12 05:42:42;;;;;;;;;;;;;;;7.86;91.06;96181.81;110622;1240;70609;-77
2023/04/12 05:45:11;;;;;;;;;;;;;;;7.95;91.44;96180.54;110584;1240;69652;-78
2023/04/12 05:47:42;;;;;;;;;;;;;;;8.04;93.44;96182.42;111017;1241;68291;-79
2023/04/12 05:50:11;;;;;;;;;;;;;;;8.11;92.41;96183.70;111469;1238;58680;-78
2023/04/12 05:52:40;;;;;;;;;;;;;;;8.17;92.13;96189.01;110487;1244;59686;-79
2023/04/12 05:55:09;;;;;;;;;;;;;;;8.23;92.60;96191.24;110391;1242;71433;-80
2023/04/12 05:57:41;;;;;;;;;;;;;;;8.23;93.90;96190.72;110681;1240;69199;-80
2023/04/12 06:00:16;;;;;;;;;;;;;;;8.26;92.85;96189.48;110655;1241;69279;-80
2023/04/12 06:02:46;;;;;;;;;;;;;;;8.08;93.60;96188.96;110638;1240;59744;-80
2023/04/12 06:05:16;;;;;;;;;;;;;;;8.12;93.37;96184.13;110571;1238;59683;-81
2023/04/12 06:07:47;;;;;;;;;;;;;;;8.11;93.33;96182.39;110594;1241;70654;-80
2023/04/12 06:10:16;;;;;;;;;;;;;;;8.14;91.83;96182.41;110664;1240;69217;-79
2023/04/12 06:12:49;;;;;;;;;;;;;;;8.20;93.29;96184.45;110569;1238;68610;-81
2023/04/12 06:15:20;;;;;;;;;;;;;;;8.17;93.51;96183.45;110475;1242;59739;-79
2023/04/12 06:17:54;;;;;;;;;;;;;;;8.23;92.45;96181.36;110735;1238;60148;-80
2023/04/12 06:20:23;;;;;;;;;;;;;;;8.21;93.58;96181.55;110667;1242;71370;-79
2023/04/12 06:22:52;;;;;;;;;;;;;;;8.08;93.62;96179.98;110885;1243;68548;-79
2023/04/12 06:25:21;;;;;;;;;;;;;;;8.18;92.79;96178.30;110525;1238;69893;-78
2023/04/12 06:27:51;;;;;;;;;;;;;;;8.28;92.69;96180.09;110629;1238;59744;-79
2023/04/12 06:30:21;;;;;;;;;;;;;;;8.32;91.35;96178.89;110668;1242;59681;-79
2023/04/12 06:32:52;;;;;;;;;;;;;;;8.37;91.41;96174.86;110642;1241;71415;-79
2023/04/12 06:35:22;;;;;;;;;;;;;;;8.35;93.22;96178.80;110506;1238;69378;-78
2023/04/12 06:37:51;;;;;;;;;;;;;;;8.41;92.35;96173.51;110360;1242;69314;-78
2023/04/12 06:40:20;;;;;;;;;;;;;;;8.41;93.34;96176.06;110653;1241;59697;-78
2023/04/12 06:42:49;;;;;;;;;;;;;;;8.48;91.35;96173.94;110427;1238;59686;-79
2023/04/12 06:45:22;;;;;;;;;;;;;;;8.49;92.60;96173.38;110372;1242;70828;-79
2023/04/12 06:47:50;;;;;;;;;;;;;;;8.56;91.97;96170.31;110546;1241;69202;-77
2023/04/12 06:50:19;;;;;;;;;;;;;;;8.62;91.83;96171.83;110709;1240;69103;-79
2023/04/12 06:52:47;;;;;;;;;;;;;;;8.73;92.44;96170.45;110576;1242;59721;-78
2023/04/12 06:55:16;;;;;;;;;;;;;;;8.85;92.21;96170.27;110599;1241;59689;-79
2023/04/12 06:57:45;;;;;;;;;;;;;;;8.95;91.76;96171.15;110793;1238;71901;-79
2023/04/12 07:00:13;;;;;;;;;;;;;;;9.03;90.13;96170.60;112390;1238;69658;-79
2023/04/12 07:02:42;;;;;;;;;;;;;;;8.95;90.03;96166.27;110613;1238;69856;-79
2023/04/12 07:05:11;;;;;;;;;;;;;;;8.98;90.72;96169.87;110633;1238;59658;-78
2023/04/12 07:07:40;;;;;;;;;;;;;;;9.03;90.22;96168.77;110634;1238;59672;-78
2023/04/12 07:10:08;;;;;;;;;;;;;;;9.05;89.85;96172.54;110456;1238;71445;-79
2023/04/12 07:12:37;;;;;;;;;;;;;;;9.03;89.10;96167.49;110557;1242;68254;-79
2023/04/12 07:15:06;;;;;;;;;;;;;;;9.03;88.99;96173.42;110500;1242;70126;-79
2023/04/12 07:17:35;;;;;;;;;;;;;;;9.06;87.67;96175.80;110499;1242;59698;-78
2023/04/12 07:20:04;;;;;;;;;;;;;;;9.07;88.90;96176.23;110494;1242;59725;-79
2023/04/12 07:22:32;;;;;;;;;;;;;;;9.08;90.32;96176.42;110749;1238;71198;-79
2023/04/12 07:25:01;;;;;;;;;;;;;;;9.15;90.48;96181.02;110631;1238;69141;-79
2023/04/12 07:27:29;;;;;;;;;;;;;;;9.13;90.52;96180.59;110584;1239;69142;-79
2023/04/12 07:29:58;;;;;;;;;;;;;;;9.11;90.63;96183.64;110682;1239;59644;-75
2023/04/12 07:32:26;;;;;;;;;;;;;;;9.14;89.36;96179.53;110690;1239;59673;-79
2023/04/12 07:34:55;;;;;;;;;;;;;;;9.15;89.71;96185.54;110274;1244;72269;-79
2023/04/12 07:37:23;;;;;;;;;;;;;;;9.08;90.87;96181.29;110747;1238;69637;-78
2023/04/12 07:39:54;;;;;;;;;;;;;;;9.07;89.82;96187.67;110478;1238;67527;-78
2023/04/12 07:42:23;;;;;;;;;;;;;;;9.01;91.32;96183.81;110536;1239;59678;-78
2023/04/12 07:44:51;;;;;;;;;;;;;;;9.03;89.54;96185.20;110583;1240;59709;-78
2023/04/12 07:47:20;;;;;;;;;;;;;;;8.99;89.33;96184.00;110541;1238;71969;-78
2023/04/12 07:49:49;;;;;;;;;;;;;;;8.90;90.63;96187.02;110827;1238;68534;-78
2023/04/12 07:52:17;;;;;;;;;;;;;;;8.91;90.99;96185.34;110518;1242;69099;-78
2023/04/12 07:54:46;;;;;;;;;;;;;;;8.87;90.73;96187.44;110589;1239;59686;-78
2023/04/12 07:57:15;;;;;;;;;;;;;;;8.88;90.97;96190.38;110587;1242;59684;-78
2023/04/12 07:59:43;;;;;;;;;;;;;;;8.82;90.72;96194.84;110582;1241;71771;-79
2023/04/12 08:02:12;;;;;;;;;;;;;;;8.84;90.59;96194.56;110599;1242;69070;-78
2023/04/12 08:04:43;;;;;;;;;;;;;;;8.80;90.72;96190.89;110604;1237;69247;-78
2023/04/12 08:07:11;;;;;;;;;;;;;;;8.72;91.49;96192.08;110602;1241;59738;-80
2023/04/12 08:09:40;;;;;;;;;;;;;;;8.74;91.61;96188.80;112422;1238;58028;-79
2023/04/12 08:12:08;;;;;;;;;;;;;;;8.77;91.95;96185.75;111231;1241;70651;-78
2023/04/12 08:14:37;;;;;;;;;;;;;;;8.75;92.07;96181.38;110562;1241;69207;-78
2023/04/12 08:17:08;;;;;;;;;;;;;;;8.78;91.63;96187.55;110715;1238;69283;-79
2023/04/12 08:19:36;;;;;;;;;;;;;;;8.80;91.99;96185.14;110693;1238;59757;-79
2023/04/12 08:22:07;;;;;;;;;;;;;;;8.87;91.54;96183.85;110539;1242;59699;-80
2023/04/12 08:24:35;;;;;;;;;;;;;;;8.95;91.27;96188.02;110409;1242;70418;-79
2023/04/12 08:27:03;;;;;;;;;;;;;;;9.05;90.02;96184.40;110783;1239;69210;-79
2023/04/12 08:29:33;;;;;;;;;;;;;;;9.11;90.57;96186.79;110673;1238;69084;-79
2023/04/12 08:32:04;;;;;;;;;;;;;;;9.24;90.32;96189.02;110638;1241;59744;-79
2023/04/12 08:34:32;;;;;;;;;;;;;;;9.35;90.26;96186.64;110721;1237;60113;-79
2023/04/12 08:37:00;;;;;;;;;;;;;;;9.40;90.50;96188.79;110791;1239;71182;-79
2023/04/12 08:39:32;;;;;;;;;;;;;;;9.47;90.81;96186.29;110722;1237;69097;-79
2023/04/12 08:42:01;;;;;;;;;;;;;;;9.59;89.73;96190.13;110683;1239;69278;-79
2023/04/12 08:44:35;;;;;;;;;;;;;;;9.66;89.63;96191.40;110659;1239;59695;-78
2023/04/12 08:47:05;;;;;;;;;;;;;;;9.75;88.61;96194.42;110738;1239;59685;-79
2023/04/12 08:49:34;;;;;;;;;;;;;;;9.85;87.92;96194.05;110792;1237;71189;-79
2023/04/12 08:52:07;;;;;;;;;;;;;;;9.83;86.35;96195.13;110712;1239;69669;-79
2023/04/12 08:54:36;;;;;;;;;;;;;;;9.79;86.02;96193.59;110603;1239;69673;-79
2023/04/12 08:57:08;;;;;;;;;;;;;;;9.81;87.77;96194.41;110651;1240;59744;-79
2023/04/12 08:59:38;;;;;;;;;;;;;;;9.82;86.77;96194.02;110782;1238;59611;-80
2023/04/12 09:02:06;;;;;;;;;;;;;;;9.88;87.03;96192.08;110688;1238;71293;-80
2023/04/12 09:04:45;;;;;;;;;;;;;;;9.99;86.40;96195.23;110797;1239;68417;-79
2023/04/12 09:07:14;;;;;;;;;;;;;;;10.03;85.88;96192.29;110719;1238;69168;-79
2023/04/12 09:09:44;;;;;;;;;;;;;;;10.16;87.02;96194.36;110718;1239;59693;-80
2023/04/12 09:12:14;;;;;;;;;;;;;;;10.17;84.77;96195.31;110821;1238;59642;-80
2023/04/12 09:14:43;;;;;;;;;;;;;;;10.30;84.87;96193.00;110708;1238;71781;-80
2023/04/12 09:17:22;;;;;;;;;;;;;;;10.29;83.61;96192.77;110837;1239;69620;-80
2023/04/12 09:19:56;;;;;;;;;;;;;;;10.35;84.69;96195.20;111911;1239;70011;-78
2023/04/12 09:22:34;;;;;;;;;;;;;;;10.50;84.33;96192.58;110991;1246;59677;-77
2023/04/12 09:25:02;;;;;;;;;;;;;;;10.53;83.59;96194.16;110813;1238;59773;-79
2023/04/12 09:27:50;;;;;;;;;;;;;;;10.55;82.34;96195.56;110792;1239;71954;-78
2023/04/12 09:30:19;;;;;;;;;;;;;;;10.31;82.15;96188.38;110395;1246;396956;-79
2023/04/12 09:32:52;;;;;;;;;;;;;;;10.46;82.73;96192.73;110744;1238;69719;-79
2023/04/12 09:35:36;;;;;;;;;;;;;;;10.70;82.27;96194.73;110671;1239;59684;-79
2023/04/12 09:38:09;;;;;;;;;;;;;;;10.87;79.54;96189.52;110670;1239;59627;-80
2023/04/12 09:40:37;;;;;;;;;;;;;;;11.07;80.26;96185.01;110717;1238;70851;-80
2023/04/12 09:43:06;;;;;;;;;;;;;;;11.19;78.60;96186.27;110675;1239;69282;-79
2023/04/12 09:45:37;;;;;;;;;;;;;;;11.24;77.52;96183.77;110718;1239;69673;-80
2023/04/12 09:48:16;;;;;;;;;;;;;;;11.26;76.34;96185.31;110636;1239;59725;-80
2023/04/12 09:50:45;;;;;;;;;;;;;;;11.38;76.52;96181.48;110597;1239;59702;-80
2023/04/12 09:53:16;;;;;;;;;;;;;;;11.41;76.65;96184.70;110774;1237;69498;-79
2023/04/12 09:55:45;;;;;;;;;;;;;;;11.40;76.72;96188.35;110667;1238;68472;-79
2023/04/12 09:58:18;;;;;;;;;;;;;;;11.29;76.53;96183.06;110714;1237;69869;-78
2023/04/12 10:00:47;;;;;;;;;;;;;;;11.11;76.06;96190.06;110585;1239;60017;-80
2023/04/12 10:03:17;;;;;;;;;;;;;;;10.89;76.68;96193.30;110600;1239;59666;-79
2023/04/12 10:05:46;;;;;;;;;;;;;;;10.87;78.17;96191.71;110719;1238;70603;-79
2023/04/12 10:08:16;;;;;;;;;;;;;;;10.90;78.00;96196.65;110654;1239;69677;-80
2023/04/12 10:10:45;;;;;;;;;;;;;;;10.86;78.07;96194.41;110790;1239;69669;-79
2023/04/12 10:13:14;;;;;;;;;;;;;;;10.91;77.53;96192.79;110609;1237;59677;-79
2023/04/12 10:15:44;;;;;;;;;;;;;;;10.62;77.09;96193.71;110622;1239;59673;-80
2023/04/12 10:18:15;;;;;;;;;;;;;;;10.63;78.42;96194.86;110658;1239;71731;-80
2023/04/12 10:20:45;;;;;;;;;;;;;;;10.69;78.03;96195.68;110634;1241;69799;-79
2023/04/12 10:23:17;;;;;;;;;;;;;;;10.75;77.93;96196.77;110657;1239;69080;-80
2023/04/12 10:25:46;;;;;;;;;;;;;;;10.83;77.88;96194.40;110565;1243;59743;-80
2023/04/12 10:28:17;;;;;;;;;;;;;;;10.82;76.48;96194.30;111279;1239;59672;-79
2023/04/12 10:30:51;;;;;;;;;;;;;;;10.74;77.31;96192.41;112401;1239;71388;-79
2023/04/12 10:33:24;;;;;;;;;;;;;;;10.62;76.18;96190.96;110819;1239;69505;-79
2023/04/12 10:36:02;;;;;;;;;;;;;;;10.74;77.19;96190.02;110625;1239;69280;-80
2023/04/12 10:38:45;;;;;;;;;;;;;;;10.76;76.34;96187.67;110683;1237;59684;-80
2023/04/12 10:41:20;;;;;;;;;;;;;;;10.79;76.72;96188.34;110692;1244;59765;-79
2023/04/12 10:43:49;;;;;;;;;;;;;;;10.86;76.66;96192.48;110697;1239;71520;-79
2023/04/12 10:46:36;;;;;;;;;;;;;;;10.96;76.68;96195.98;110641;1239;69271;-80
2023/04/12 10:49:09;;;;;;;;;;;;;;;10.98;76.40;96197.84;110628;1241;69689;-78
2023/04/12 10:51:38;;;;;;;;;;;;;;;11.07;76.20;96198.08;110715;1239;59654;-80
2023/04/12 10:54:09;;;;;;;;;;;;;;;11.16;75.48;96196.73;110684;1239;59685;-80
2023/04/12 10:56:42;;;;;;;;;;;;;;;11.16;74.64;96198.48;110523;1242;70400;-79
2023/04/12 10:59:19;;;;;;;;;;;;;;;11.19;74.69;96195.48;110649;1240;69641;-80
2023/04/12 11:02:03;;;;;;;;;;;;;;;11.28;74.30;96193.34;110563;1242;69355;-80
2023/04/12 11:04:32;;;;;;;;;;;;;;;11.32;73.36;96193.97;110627;1239;59642;-79
2023/04/12 11:07:10;;;;;;;;;;;;;;;11.37;73.09;96193.12;110688;1240;59664;-80
2023/04/12 11:09:41;;;;;;;;;;;;;;;11.31;72.61;96190.20;110773;1240;71148;-81
2023/04/12 11:12:20;;;;;;;;;;;;;;;11.39;73.14;96193.50;110553;1241;68309;-79
2023/04/12 11:14:49;;;;;;;;;;;;;;;11.42;72.85;96194.42;110710;1241;69724;-80
2023/04/12 11:17:25;;;;;;;;;;;;;;;11.39;72.53;96193.77;110360;1242;59689;-79
2023/04/12 11:19:55;;;;;;;;;;;;;;;11.33;72.33;96193.57;110669;1241;59702;-80
2023/04/12 11:22:26;;;;;;;;;;;;;;;11.33;72.85;96195.81;110632;1241;71299;-79
2023/04/12 11:24:56;;;;;;;;;;;;;;;11.24;72.43;96197.15;110508;1241;69832;-79
2023/04/12 11:27:26;;;;;;;;;;;;;;;11.31;72.32;96195.97;110634;1242;69217;-79
2023/04/12 11:29:55;;;;;;;;;;;;;;;11.29;71.86;96195.30;110600;1241;59679;-80
2023/04/12 11:32:26;;;;;;;;;;;;;;;11.18;72.13;96202.31;110393;1242;59692;-79
2023/04/12 11:34:55;;;;;;;;;;;;;;;11.29;71.44;96197.23;110476;1241;71220;-80
2023/04/12 11:37:25;;;;;;;;;;;;;;;11.27;71.41;96199.02;110497;1241;68403;-80
2023/04/12 11:39:56;;;;;;;;;;;;;;;11.37;71.26;96198.57;111407;1241;69377;-79
2023/04/12 11:42:28;;;;;;;;;;;;;;;11.17;70.88;96197.65;110898;1241;59690;-80
2023/04/12 11:44:56;;;;;;;;;;;;;;;11.25;71.14;96191.84;110746;1241;59676;-79
2023/04/12 11:47:30;;;;;;;;;;;;;;;11.27;71.02;96193.39;110559;1242;70718;-80
2023/04/12 11:49:59;;;;;;;;;;;;;;;11.33;70.62;96193.36;110581;1240;69689;-79
2023/04/12 11:52:31;;;;;;;;;;;;;;;11.28;70.60;96193.69;110492;1242;68085;-80
2023/04/12 11:55:01;;;;;;;;;;;;;;;11.40;70.78;96196.14;110480;1242;59601;-79
2023/04/12 11:57:29;;;;;;;;;;;;;;;11.40;70.68;96199.95;110525;1242;59727;-79
2023/04/12 11:59:59;;;;;;;;;;;;;;;11.48;70.56;96203.96;110659;1240;72238;-80
2023/04/12 12:02:27;;;;;;;;;;;;;;;11.53;69.86;96201.18;110631;1241;69340;-80
2023/04/12 12:05:06;;;;;;;;;;;;;;;11.45;69.46;96203.58;110508;1240;69309;-79
2023/04/12 12:07:35;;;;;;;;;;;;;;;11.39;69.85;96205.51;110600;1241;59670;-80
2023/04/12 12:10:05;;;;;;;;;;;;;;;11.41;69.96;96208.28;110655;1242;59633;-79
2023/04/12 12:12:33;;;;;;;;;;;;;;;11.39;70.47;96212.34;110641;1242;71936;-79
2023/04/12 12:15:02;;;;;;;;;;;;;;;11.34;71.41;96213.15;110583;1241;69164;-79
2023/04/12 12:17:35;;;;;;;;;;;;;;;11.30;72.03;96215.83;110787;1238;68307;-79
2023/04/12 12:20:04;;;;;;;;;;;;;;;11.24;72.11;96220.52;110618;1239;59736;-79
2023/04/12 12:22:33;;;;;;;;;;;;;;;11.16;72.45;96223.73;110577;1239;59624;-80
2023/04/12 12:25:01;;;;;;;;;;;;;;;11.05;73.47;96226.46;110731;1239;71390;-79
2023/04/12 12:27:29;;;;;;;;;;;;;;;11.00;73.77;96232.71;110708;1238;69067;-80
2023/04/12 12:30:00;;;;;;;;;;;;;;;10.92;75.11;96228.41;110738;1239;69212;-80
2023/04/12 12:32:35;;;;;;;;;;;;;;;10.86;77.72;96230.58;110704;1239;59625;-79
2023/04/12 12:35:08;;;;;;;;;;;;;;;10.81;78.03;96227.17;110604;1239;59655;-79
2023/04/12 12:37:37;;;;;;;;;;;;;;;10.83;77.21;96231.16;110666;1240;70393;-80
2023/04/12 12:40:13;;;;;;;;;;;;;;;10.87;78.25;96231.30;110748;1239;69659;-80
2023/04/12 12:42:45;;;;;;;;;;;;;;;10.93;78.00;96230.91;110786;1239;69663;-80
2023/04/12 12:45:16;;;;;;;;;;;;;;;11.02;79.52;96234.60;110683;1239;59654;-80
2023/04/12 12:47:45;;;;;;;;;;;;;;;11.18;78.93;96233.86;110687;1239;59724;-81
2023/04/12 12:50:16;;;;;;;;;;;;;;;11.29;77.77;96232.49;112109;1237;70419;-78
2023/04/12 12:52:45;;;;;;;;;;;;;;;11.33;78.62;96226.49;110977;1237;69062;-78
2023/04/12 12:55:14;;;;;;;;;;;;;;;11.43;76.68;96224.81;110752;1240;68690;-79
2023/04/12 12:57:43;;;;;;;;;;;;;;;11.50;76.00;96226.96;110772;1239;59667;-80
2023/04/12 13:00:29;;;;;;;;;;;;;;;11.54;75.03;96222.09;110731;1239;59601;-80
2023/04/12 13:02:57;;;;;;;;;;;;;;;11.52;74.12;96220.02;110675;1239;71202;-78
2023/04/12 13:05:27;;;;;;;;;;;;;;;11.48;73.64;96223.50;110593;1239;69248;-79